Freedom, Wisconsin
Current Conditions -  °F | °C
As of 6:53 PM on Saturday 25 Oct 2014 (Local Time) from KGRB Reporting Station
Clear Clear  
Wind Chill: 56°   Ceiling: Unl
Heat Index: 56°   Visibility: 10mi
Dew Point: 30°   Wind: 10mph
Humidity: 37%   Direction: 270°W
Pressure: 29.86"   Gusts: NA
Location:  44.39°N, 88.29°W
Report Text: KGRB 252353Z 27009KT 10SM CLR 13/M01 A2986 RMK AO2 SLP115 T01331011 10189 20128 53015
Loading
Personal Weather Stations






























Interactive Weather Map
Tropical Storm Tracking
New forecast layout! Learn more

10-Day Weather Forecast

Advertisements
Track Severe Weather on mobile